Create Tblcommutelog Verified Points Advance Search
| # | Trip ID | Id Commuter | Trip Date | Trip Num | Current Lat | Current Lng | Delta Distance | Current Time | Activity | Activity Confidence | Current Speed | |
|---|---|---|---|---|---|---|---|---|---|---|---|---|
| 69161 | 250909_786932_16444065_0715 | 786932 | (not set) | (not set) | 39.305216996987 | -76.544033259919 | 3.5795 | 2025-09-09 07:32:01 | in_vehicle | 100 | 13.165306177188 | |
| 69162 | 250909_784608_16458763_0705 | 784608 | (not set) | (not set) | 38.844627167724 | -77.050485431211 | 14.7756 | 2025-09-09 07:32:03 | in_vehicle | 100 | 8.775380653929 | |
| 69163 | 250909_762844_16460442_0637 | 762844 | (not set) | (not set) | 38.921199468327 | -76.907126185213 | 33.8607 | 2025-09-09 07:32:03 | in_vehicle | 100 | -0.44703925898772 | |
| 69164 | 250909_731669_16507744_0703 | 731669 | (not set) | (not set) | 38.752144300827 | -77.46225677162 | 9.2651 | 2025-09-09 07:32:04 | in_vehicle | 100 | 5.0470732339714 | |
| 69165 | 250909_788474_16485529_0642 | 788474 | (not set) | (not set) | 38.816119823477 | -77.13681438885 | 39.9004 | 2025-09-09 07:32:04 | in_vehicle | 100 | 12.083471170438 | |
| 69166 | 250909_788422_16420004_0651 | 788422 | (not set) | (not set) | 39.174484319615 | -76.694739418583 | 28.465 | 2025-09-09 07:32:04 | in_vehicle | 100 | 16.804205745349 | |
| 69167 | 250909_788422_16420004_0651 | 788422 | (not set) | (not set) | 39.174484319615 | -76.694739418583 | 28.465 | 2025-09-09 07:32:04 | in_vehicle | 100 | 16.804205745349 | |
| 69168 | 250909_788422_16420004_0651 | 788422 | (not set) | (not set) | 39.174484319615 | -76.694739418583 | 28.465 | 2025-09-09 07:32:04 | in_vehicle | 100 | 16.804205745349 | |
| 69169 | 250909_788422_16420004_0651 | 788422 | (not set) | (not set) | 39.174484319615 | -76.694739418583 | 28.465 | 2025-09-09 07:32:04 | in_vehicle | 100 | 16.804205745349 | |
| 69170 | 250909_788422_16420004_0651 | 788422 | (not set) | (not set) | 39.174484319615 | -76.694739418583 | 28.465 | 2025-09-09 07:32:04 | in_vehicle | 100 | 16.804205745349 | |
| 69171 | 250909_788422_16420004_0651 | 788422 | (not set) | (not set) | 39.174484319615 | -76.694739418583 | 28.465 | 2025-09-09 07:32:04 | in_vehicle | 100 | 16.804205745349 | |
| 69172 | 250909_782322_16504834_0701 | 782322 | (not set) | (not set) | 39.084498481897 | -77.14626909535 | 11.0439 | 2025-09-09 07:32:05 | unknown | 100 | 0.72420359956011 | |
| 69173 | 250909_788422_16420004_0651 | 788422 | (not set) | (not set) | 39.174484319615 | -76.694739418583 | 28.465 | 2025-09-09 07:32:04 | in_vehicle | 100 | 16.804205745349 | |
| 69174 | 250909_788422_16420004_0651 | 788422 | (not set) | (not set) | 39.174484319615 | -76.694739418583 | 28.465 | 2025-09-09 07:32:04 | in_vehicle | 100 | 16.804205745349 | |
| 69175 | 250909_788422_16420004_0651 | 788422 | (not set) | (not set) | 39.174484319615 | -76.694739418583 | 28.465 | 2025-09-09 07:32:04 | in_vehicle | 100 | 16.804205745349 | |
| 69176 | 250909_107574_16513620_0728 | 107574 | (not set) | (not set) | 38.993402579063 | -77.031151724708 | 3.2773 | 2025-09-09 07:32:05 | in_vehicle | 100 | -0.44703925898772 | |
| 69177 | 250909_783315_16506039_0725 | 783315 | (not set) | (not set) | 38.7583283 | -77.2193953 | 2.886 | 2025-09-09 07:32:08 | still | 100 | 9.3118277647143 | |
| 69178 | 250909_669170_16500693_0637 | 669170 | (not set) | (not set) | 39.215359886751 | -77.399012678763 | 30.859 | 2025-09-09 07:32:07 | in_vehicle | 100 | 8.6457392688226 | |
| 69179 | 250909_785230_16490874_0713 | 785230 | (not set) | (not set) | 38.816834463481 | -76.83427091919 | 14.6645 | 2025-09-09 07:32:08 | in_vehicle | 100 | 5.4225862115211 | |
| 69180 | 250909_785230_16490874_0713 | 785230 | (not set) | (not set) | 38.816834463481 | -76.83427091919 | 14.6645 | 2025-09-09 07:32:08 | in_vehicle | 100 | 5.4225862115211 |